Time;durP1;ratioP1;P1;durP2;ratioP2;P2;SDS_P1;SDS_P2;PMS_P1;PMS_P2;Temp;Humidity;BMP_temperature;BMP_pressure;BME280_temperature;BME280_humidity;BME280_pressure;Samples;Min_cycle;Max_cycle;Signal;HPM_P1;HPM_P2
2022/11/13 00:00:04;;;;;;;53.33;30.45;;;;;;;8.22;84.23;101588.22;4488658;31;33735;-75
2022/11/13 00:02:50;;;;;;;52.55;32.00;;;;;;;8.00;84.87;101590.69;4482227;31;33844;-75
2022/11/13 00:05:36;;;;;;;59.75;35.10;;;;;;;8.03;85.21;101580.59;4483333;31;34305;-75
2022/11/13 00:08:22;;;;;;;49.67;29.87;;;;;;;7.97;84.48;101570.69;4478184;31;33958;-75
2022/11/13 00:11:10;;;;;;;57.83;33.97;;;;;;;8.10;83.65;101574.31;4485744;31;33717;-75
2022/11/13 00:13:57;;;;;;;62.70;40.30;;;;;;;7.95;84.25;101581.66;4485770;31;34465;-75
2022/11/13 00:16:43;;;;;;;70.50;40.25;;;;;;;7.11;87.15;101575.34;4485100;31;33785;-75
2022/11/13 00:19:28;;;;;;;56.78;34.38;;;;;;;7.18;87.19;101576.00;4485163;31;33532;-75
2022/11/13 00:22:14;;;;;;;55.95;34.47;;;;;;;7.73;84.65;101579.84;4481147;31;34044;-75
2022/11/13 00:25:00;;;;;;;51.90;31.85;;;;;;;7.62;85.25;101580.62;4478898;31;33817;-75
2022/11/13 00:27:46;;;;;;;54.08;32.95;;;;;;;7.48;85.70;101582.03;4485350;31;33448;-75
2022/11/13 00:30:32;;;;;;;62.55;37.65;;;;;;;7.47;85.98;101580.19;4499812;31;33987;-76
2022/11/13 00:33:17;;;;;;;62.95;35.55;;;;;;;7.32;85.73;101584.03;4497579;31;33887;-75
2022/11/13 00:36:24;;;;;;;;;;;;;;;7.49;85.09;101581.22;4484748;31;33574;-75
2022/11/13 00:39:11;;;;;;;53.85;31.20;;;;;;;7.76;83.82;101586.94;4484978;31;33337;-76
2022/11/13 00:41:56;;;;;;;57.78;30.98;;;;;;;7.40;84.79;101583.06;4485042;31;33885;-75
2022/11/13 00:44:43;;;;;;;47.42;28.25;;;;;;;7.96;82.25;101583.44;4477350;31;33772;-75
2022/11/13 00:47:29;;;;;;;44.95;28.30;;;;;;;7.63;83.89;101593.66;4484433;31;33765;-75
2022/11/13 00:50:15;;;;;;;57.30;34.10;;;;;;;7.25;85.10;101583.53;4483497;31;33065;-75
2022/11/13 00:53:00;;;;;;;63.30;40.60;;;;;;;6.98;85.92;101578.56;4484530;31;34439;-75
2022/11/13 00:55:46;;;;;;;71.65;41.83;;;;;;;6.15;89.68;101586.63;4484226;31;33874;-75
2022/11/13 00:58:32;;;;;;;78.10;46.50;;;;;;;6.29;89.98;101584.50;4485010;31;33636;-75
2022/11/13 01:01:19;;;;;;;79.97;46.30;;;;;;;6.20;90.20;101587.91;4486026;31;33067;-75
2022/11/13 01:04:05;;;;;;;64.35;39.95;;;;;;;6.42;89.29;101594.25;4489922;31;34056;-75
2022/11/13 01:06:51;;;;;;;62.03;39.92;;;;;;;7.14;85.69;101584.25;4485226;31;34639;-75
2022/11/13 01:09:36;;;;;;;62.25;38.92;;;;;;;6.80;86.55;101576.16;4484102;31;33628;-75
2022/11/13 01:12:22;;;;;;;54.20;30.65;;;;;;;6.70;86.49;101583.81;4474425;31;33527;-75
2022/11/13 01:15:08;;;;;;;48.00;31.15;;;;;;;6.82;86.28;101569.47;4484407;31;35319;-76
2022/11/13 01:17:54;;;;;;;50.40;30.73;;;;;;;6.91;85.34;101569.37;4485201;31;33948;-75
2022/11/13 01:20:40;;;;;;;49.38;31.55;;;;;;;7.03;84.98;101564.38;4484631;31;34542;-75
2022/11/13 01:23:26;;;;;;;43.28;26.08;;;;;;;7.72;81.84;101561.66;4474280;31;33271;-75
2022/11/13 01:26:15;;;;;;;38.33;23.52;;;;;;;8.23;79.12;101559.06;4484233;31;34668;-75
2022/11/13 01:29:00;;;;;;;42.60;25.23;;;;;;;8.52;75.49;101560.53;4484240;31;34674;-75
2022/11/13 01:31:46;;;;;;;39.38;24.37;;;;;;;6.58;83.63;101573.34;4484588;31;34517;-75
2022/11/13 01:34:32;;;;;;;45.67;25.98;;;;;;;6.69;84.27;101557.19;4484648;31;34268;-75
2022/11/13 01:37:18;;;;;;;43.55;27.25;;;;;;;6.40;85.68;101552.03;4484906;31;34352;-75
2022/11/13 01:40:04;;;;;;;44.97;28.62;;;;;;;6.45;86.34;101561.06;4498320;31;33910;-75
2022/11/13 01:42:50;;;;;;;45.97;27.67;;;;;;;6.22;86.47;101555.50;4484065;31;32464;-75
2022/11/13 01:45:57;;;;;;;46.65;28.42;;;;;;;6.15;87.29;101558.31;4484700;31;34285;-75
2022/11/13 01:48:54;;;;;;;43.60;27.17;;;;;;;5.86;88.64;101557.41;4475351;31;34488;-75
2022/11/13 01:51:48;;;;;;;47.35;26.55;;;;;;;5.96;88.19;101551.47;4482388;32;33935;-74
2022/11/13 01:54:38;;;;;;;49.05;28.87;;;;;;;5.64;90.68;101556.19;4488045;31;34427;-76
2022/11/13 01:57:24;;;;;;;45.70;27.83;;;;;;;5.81;90.00;101545.78;4484513;31;33540;-76
2022/11/13 02:00:11;;;;;;;50.60;29.08;;;;;;;5.85;89.67;101541.84;4482346;31;33814;-75
2022/11/13 02:02:57;;;;;;;49.92;28.65;;;;;;;5.75;90.51;101529.81;4491878;31;34597;-75
2022/11/13 02:05:43;;;;;;;52.17;29.65;;;;;;;5.60;91.81;101529.34;4488383;31;33750;-75
2022/11/13 02:08:28;;;;;;;60.28;34.03;;;;;;;5.63;91.30;101528.69;4494612;31;33212;-75
2022/11/13 02:11:15;;;;;;;59.88;34.40;;;;;;;5.38;91.60;101529.00;4496229;31;33737;-75
2022/11/13 02:14:01;;;;;;;64.62;33.78;;;;;;;5.28;92.88;101524.66;4488669;31;34085;-75
2022/11/13 02:16:50;;;;;;;67.18;36.05;;;;;;;5.49;92.31;101524.84;4485848;31;32669;-75
2022/11/13 02:19:39;;;;;;;75.18;33.35;;;;;;;5.45;92.10;101521.09;4484512;32;34145;-75
2022/11/13 02:22:47;;;;;;;66.37;32.45;;;;;;;5.33;94.55;101522.50;4476382;32;34077;-75
2022/11/13 02:25:33;;;;;;;67.85;35.75;;;;;;;5.61;92.48;101531.13;4497708;31;34002;-75
2022/11/13 02:28:19;;;;;;;67.05;31.90;;;;;;;5.68;91.66;101520.66;4459780;32;32187;-75
2022/11/13 02:31:07;;;;;;;79.87;35.70;;;;;;;5.41;93.29;101516.44;4488873;31;33213;-75
2022/11/13 02:33:53;;;;;;;73.25;33.40;;;;;;;5.42;92.98;101518.22;4485365;31;33841;-74
2022/11/13 02:36:39;;;;;;;79.40;34.50;;;;;;;5.44;93.24;101515.81;4482871;31;34593;-75
2022/11/13 02:39:25;;;;;;;73.07;34.88;;;;;;;5.28;93.50;101516.06;4488851;31;33634;-75
2022/11/13 02:42:10;;;;;;;83.18;36.17;;;;;;;5.56;92.63;101518.59;4477183;31;33641;-75
2022/11/13 02:44:56;;;;;;;65.70;32.40;;;;;;;5.57;91.87;101515.28;4484047;32;33414;-75
2022/11/13 02:47:42;;;;;;;63.05;31.05;;;;;;;5.42;92.10;101507.06;4486490;31;33864;-75
2022/11/13 02:50:28;;;;;;;59.35;30.48;;;;;;;5.44;92.67;101515.81;4491478;31;33765;-75
2022/11/13 02:53:14;;;;;;;55.88;29.55;;;;;;;5.83;91.02;101512.50;4490709;31;33236;-75
2022/11/13 02:55:59;;;;;;;75.82;34.28;;;;;;;5.94;90.30;101501.53;4487706;31;33922;-76
2022/11/13 02:58:45;;;;;;;72.25;34.05;;;;;;;5.50;91.25;101513.78;4496291;31;34004;-75
2022/11/13 03:01:31;;;;;;;63.15;30.85;;;;;;;5.43;92.50;101514.00;4483559;31;33909;-75
2022/11/13 03:04:17;;;;;;;62.80;30.80;;;;;;;5.52;91.90;101514.84;4487488;31;33671;-75
2022/11/13 03:07:03;;;;;;;58.95;32.35;;;;;;;5.19;93.95;101518.66;4492315;31;33826;-76
2022/11/13 03:09:49;;;;;;;55.90;30.60;;;;;;;5.24;94.07;101522.56;4487020;31;34695;-75
2022/11/13 03:12:35;;;;;;;56.00;30.73;;;;;;;5.41;92.96;101520.66;4494332;31;33963;-75
2022/11/13 03:15:21;;;;;;;53.28;30.95;;;;;;;5.38;93.14;101530.66;4495211;31;33483;-75
2022/11/13 03:18:07;;;;;;;49.00;27.55;;;;;;;5.44;93.22;101523.53;4475139;31;35035;-75
2022/11/13 03:20:53;;;;;;;47.13;29.08;;;;;;;6.43;89.07;101525.63;4485827;31;34584;-75
2022/11/13 03:23:40;;;;;;;47.55;28.42;;;;;;;6.88;85.65;101523.62;4484035;31;34467;-75
2022/11/13 03:26:28;;;;;;;49.70;27.08;;;;;;;7.42;82.88;101514.47;4487578;31;33513;-75
2022/11/13 03:29:14;;;;;;;40.00;23.55;;;;;;;7.72;80.37;101515.22;4479752;31;33943;-76
2022/11/13 03:32:02;;;;;;;41.60;24.60;;;;;;;7.98;77.33;101518.31;4488370;31;33840;-76
2022/11/13 03:34:48;;;;;;;42.35;22.27;;;;;;;7.66;78.63;101513.94;4478404;31;33402;-76
2022/11/13 03:37:33;;;;;;;39.80;23.30;;;;;;;7.66;78.01;101511.34;4475642;31;33998;-75
2022/11/13 03:40:19;;;;;;;41.37;23.27;;;;;;;7.56;78.80;101520.78;4489575;31;33862;-75
2022/11/13 03:43:05;;;;;;;40.78;23.35;;;;;;;7.49;78.89;101516.78;4488862;31;33845;-75
2022/11/13 03:45:51;;;;;;;138.25;27.70;;;;;;;7.43;78.96;101516.25;4498239;31;34392;-75
2022/11/13 03:48:36;;;;;;;51.50;22.83;;;;;;;6.14;83.74;101525.59;4484653;31;33470;-76
2022/11/13 03:51:22;;;;;;;39.80;22.20;;;;;;;6.99;79.80;101515.94;4481927;31;34620;-75
2022/11/13 03:54:08;;;;;;;41.50;24.63;;;;;;;7.48;77.58;101514.97;4481165;31;33504;-75
2022/11/13 03:56:53;;;;;;;45.10;21.75;;;;;;;7.78;75.88;101510.56;4484687;31;34210;-75
2022/11/13 03:59:39;;;;;;;42.28;23.27;;;;;;;8.28;72.30;101501.81;4484628;31;33618;-75
2022/11/13 04:02:25;;;;;;;56.25;23.98;;;;;;;7.90;72.97;101505.53;4486058;31;34025;-75
2022/11/13 04:05:11;;;;;;;85.60;23.52;;;;;;;7.75;73.45;101510.34;4482312;31;33684;-75
2022/11/13 04:07:57;;;;;;;68.40;23.23;;;;;;;6.18;80.23;101522.53;4498181;31;34342;-76
2022/11/13 04:10:43;;;;;;;99.03;23.42;;;;;;;5.93;82.17;101512.59;4488474;31;33459;-75
2022/11/13 04:13:29;;;;;;;88.50;25.75;;;;;;;5.01;86.06;101524.66;4483662;31;33133;-75
2022/11/13 04:16:15;;;;;;;102.18;24.87;;;;;;;4.71;88.21;101520.97;4486780;31;32380;-75
2022/11/13 04:19:01;;;;;;;77.62;25.35;;;;;;;4.78;88.50;101523.34;4492255;31;34482;-75
2022/11/13 04:21:46;;;;;;;62.92;26.02;;;;;;;4.79;89.40;101520.06;4495695;31;33465;-75
2022/11/13 04:24:32;;;;;;;51.13;24.42;;;;;;;4.78;90.50;101513.09;4487944;31;34751;-75
2022/11/13 04:27:18;;;;;;;77.22;25.75;;;;;;;5.46;87.43;101519.41;4486364;31;33605;-75
2022/11/13 04:30:04;;;;;;;47.33;26.30;;;;;;;5.28;88.21;101519.53;4485001;31;33380;-75
2022/11/13 04:32:50;;;;;;;68.07;27.55;;;;;;;5.98;86.17;101516.50;4487504;31;34227;-75
2022/11/13 04:35:35;;;;;;;67.37;26.75;;;;;;;5.92;85.00;101518.50;4496503;31;33760;-76
2022/11/13 04:38:21;;;;;;;65.07;24.75;;;;;;;5.47;87.39;101516.09;4473317;31;33558;-75
2022/11/13 04:44:12;;;;;;;54.65;25.08;;;;;;;4.58;91.10;101530.81;4483798;31;34241;-75
2022/11/13 04:46:57;;;;;;;59.17;24.48;;;;;;;4.65;92.35;101525.50;4491542;31;33708;-74
2022/11/13 04:49:43;;;;;;;59.00;23.62;;;;;;;5.11;90.12;101519.59;4484932;31;34048;-75
2022/11/13 04:52:29;;;;;;;112.75;28.33;;;;;;;5.30;89.17;101512.84;4483488;31;33561;-75
2022/11/13 04:55:15;;;;;;;216.20;31.65;;;;;;;5.05;90.72;101509.66;4489708;31;33153;-75
2022/11/13 04:58:00;;;;;;;103.28;27.25;;;;;;;4.50;94.47;101514.66;4490203;31;34717;-75
2022/11/13 05:00:46;;;;;;;139.90;28.67;;;;;;;4.99;93.21;101513.34;4485683;31;34012;-75
2022/11/13 05:03:32;;;;;;;94.37;26.65;;;;;;;4.95;92.85;101511.22;4483115;32;34535;-75
2022/11/13 05:06:18;;;;;;;78.75;27.70;;;;;;;5.15;92.23;101508.84;4471424;32;31994;-75
2022/11/13 05:09:04;;;;;;;119.18;28.50;;;;;;;5.41;90.53;101510.38;4485885;31;34009;-75
2022/11/13 05:11:50;;;;;;;90.65;27.58;;;;;;;5.10;92.96;101507.53;4497536;31;33944;-75
2022/11/13 05:14:39;;;;;;;95.65;27.48;;;;;;;5.03;93.17;101521.44;4489792;31;34500;-75
2022/11/13 05:17:25;;;;;;;125.85;28.25;;;;;;;4.96;93.61;101513.03;4488285;31;33255;-75
2022/11/13 05:20:10;;;;;;;149.02;28.92;;;;;;;4.94;93.67;101518.00;4477899;31;34938;-75
2022/11/13 05:22:56;;;;;;;58.47;27.17;;;;;;;5.67;91.40;101518.81;4495523;31;34903;-75
2022/11/13 05:25:42;;;;;;;58.63;26.50;;;;;;;6.55;86.71;101502.66;4483470;31;34413;-75
2022/11/13 05:28:28;;;;;;;83.72;29.02;;;;;;;7.16;83.24;101496.78;4485706;31;33435;-75
2022/11/13 05:31:15;;;;;;;115.60;25.88;;;;;;;6.86;83.40;101499.41;4483916;31;33956;-76
2022/11/13 05:34:04;;;;;;;100.70;27.92;;;;;;;6.43;85.56;101511.13;4485461;31;33946;-75
2022/11/13 05:36:51;;;;;;;121.25;31.20;;;;;;;5.39;91.19;101517.03;4486021;31;33863;-76
2022/11/13 05:39:36;;;;;;;135.05;34.55;;;;;;;5.76;89.57;101520.44;4485209;31;33809;-75
2022/11/13 05:42:22;;;;;;;109.80;33.00;;;;;;;5.82;88.94;101510.72;4479366;31;33653;-75
2022/11/13 05:45:08;;;;;;;114.70;27.00;;;;;;;5.56;90.63;101511.78;4492365;31;33630;-75
2022/11/13 05:47:54;;;;;;;106.50;26.15;;;;;;;5.35;91.15;101510.75;4486011;31;33865;-75
2022/11/13 05:50:40;;;;;;;73.15;25.83;;;;;;;5.86;90.34;101505.97;4481647;31;33214;-75
2022/11/13 05:53:25;;;;;;;153.68;28.87;;;;;;;6.82;84.80;101486.16;4497581;31;34593;-75
2022/11/13 05:56:19;;;;;;;149.48;30.12;;;;;;;6.15;87.84;101501.72;4476583;31;33959;-75
2022/11/13 05:59:05;;;;;;;49.28;27.10;;;;;;;5.46;91.23;101498.88;4488366;31;33649;-74
2022/11/13 06:01:51;;;;;;;47.45;26.73;;;;;;;6.04;89.07;101493.91;4488775;31;34050;-75
2022/11/13 06:04:37;;;;;;;43.08;24.87;;;;;;;6.87;84.16;101479.72;4490924;31;33435;-75
2022/11/13 06:07:23;;;;;;;88.50;26.77;;;;;;;7.49;80.58;101483.25;4496452;31;32333;-75
2022/11/13 06:10:09;;;;;;;57.03;25.15;;;;;;;6.32;84.46;101487.75;4476515;31;33932;-75
2022/11/13 06:12:55;;;;;;;49.35;24.23;;;;;;;6.28;85.04;101500.34;4493552;31;34128;-75
2022/11/13 06:15:41;;;;;;;53.47;26.60;;;;;;;5.62;87.97;101491.81;4498971;31;34572;-75
2022/11/13 06:18:27;;;;;;;70.55;24.23;;;;;;;6.03;86.65;101501.50;4473784;32;33479;-75
2022/11/13 06:21:19;;;;;;;46.37;23.67;;;;;;;5.63;87.65;101496.16;4486127;31;34252;-76
2022/11/13 06:24:06;;;;;;;60.00;22.52;;;;;;;6.47;84.90;101492.59;4498154;31;33541;-75
2022/11/13 06:26:52;;;;;;;99.10;29.30;;;;;;;5.71;87.22;101502.91;4493689;31;33714;-76
2022/11/13 06:29:38;;;;;;;55.45;25.98;;;;;;;5.04;91.53;101501.81;4488956;31;34271;-75
2022/11/13 06:32:23;;;;;;;67.28;26.37;;;;;;;6.64;84.62;101500.88;4487701;31;33777;-75
2022/11/13 06:35:09;;;;;;;52.45;27.23;;;;;;;6.47;84.47;101507.13;4489432;31;33306;-76
2022/11/13 06:37:55;;;;;;;51.17;26.35;;;;;;;7.20;80.94;101497.16;4484176;31;34491;-76
2022/11/13 06:40:41;;;;;;;108.32;25.40;;;;;;;7.61;77.52;101496.25;4487197;31;33793;-75
2022/11/13 06:43:27;;;;;;;57.38;23.83;;;;;;;6.77;80.98;101502.88;4480808;31;33754;-75
2022/11/13 06:46:18;;;;;;;78.00;25.45;;;;;;;6.45;83.09;101498.34;4489550;31;34084;-75
2022/11/13 06:49:03;;;;;;;67.28;21.55;;;;;;;6.35;83.80;101506.94;4482817;31;33559;-75
2022/11/13 06:51:49;;;;;;;51.72;19.90;;;;;;;6.14;84.19;101510.19;4491290;31;34767;-75
2022/11/13 06:54:35;;;;;;;54.88;22.00;;;;;;;6.18;86.00;101522.53;4491672;31;33681;-75
2022/11/13 06:57:21;;;;;;;38.00;19.73;;;;;;;7.44;79.20;101516.41;4489837;31;33940;-75
2022/11/13 07:00:08;;;;;;;38.80;20.10;;;;;;;7.50;78.55;101513.44;4486889;31;34527;-75
2022/11/13 07:02:53;;;;;;;43.55;21.80;;;;;;;7.90;76.24;101515.84;4492366;31;33584;-75
2022/11/13 07:05:40;;;;;;;53.83;21.27;;;;;;;8.02;75.48;101516.88;4479628;31;34444;-75
2022/11/13 07:08:26;;;;;;;66.18;22.10;;;;;;;7.02;79.32;101523.94;4487996;31;34045;-75
2022/11/13 07:11:18;;;;;;;56.05;22.20;;;;;;;6.01;84.54;101528.75;4490670;31;34744;-75
2022/11/13 07:14:03;;;;;;;59.17;20.92;;;;;;;6.56;82.88;101527.63;4487820;31;34334;-75
2022/11/13 07:16:49;;;;;;;51.47;21.12;;;;;;;6.23;84.39;101536.75;4479732;31;32411;-75
2022/11/13 07:19:54;;;;;;;46.05;20.15;;;;;;;6.60;84.08;101529.72;4497167;31;34096;-75
2022/11/13 07:22:40;;;;;;;60.38;19.00;;;;;;;7.07;81.76;101525.25;4488131;31;34688;-76
2022/11/13 07:25:26;;;;;;;34.83;19.50;;;;;;;7.12;81.96;101528.22;4487873;31;33974;-76
2022/11/13 07:28:12;;;;;;;37.63;19.58;;;;;;;7.64;80.18;101527.47;4485960;31;33624;-75
2022/11/13 07:30:58;;;;;;;34.88;18.67;;;;;;;8.20;78.32;101532.97;4487555;31;33812;-75
2022/11/13 07:33:46;;;;;;;37.35;19.30;;;;;;;8.52;76.67;101517.56;4485251;31;33915;-75
2022/11/13 07:36:32;;;;;;;34.97;18.75;;;;;;;8.35;76.72;101523.91;4484755;31;33937;-75
2022/11/13 07:39:18;;;;;;;32.70;17.42;;;;;;;8.50;76.66;101511.37;4486506;31;33395;-76
2022/11/13 07:42:03;;;;;;;28.48;17.52;;;;;;;8.27;77.78;101514.63;4489157;31;33877;-76
2022/11/13 07:44:49;;;;;;;36.03;18.33;;;;;;;8.46;77.79;101520.53;4487575;31;33817;-76
2022/11/13 07:47:40;;;;;;;53.00;19.50;;;;;;;8.30;78.65;101521.72;4498222;31;33741;-76
2022/11/13 07:50:32;;;;;;;40.25;18.83;;;;;;;8.42;78.76;101526.25;4476830;31;33815;-76
2022/11/13 07:53:19;;;;;;;79.40;38.72;;;;;;;8.66;78.56;101521.25;4477730;32;34096;-76
2022/11/13 07:56:05;;;;;;;137.60;62.25;;;;;;;9.08;77.26;101509.91;4498790;31;33880;-75
2022/11/13 07:58:51;;;;;;;82.45;44.92;;;;;;;9.29;76.45;101521.03;4493126;31;34042;-75
2022/11/13 08:01:37;;;;;;;38.13;22.80;;;;;;;9.44;76.18;101524.78;4490310;31;34591;-76
2022/11/13 08:04:24;;;;;;;109.57;57.13;;;;;;;9.63;75.42;101521.00;4492025;31;34284;-75
2022/11/13 08:07:11;;;;;;;104.63;33.50;;;;;;;9.52;76.08;101522.78;4484625;31;34071;-76
2022/11/13 08:09:57;;;;;;;60.58;29.27;;;;;;;9.22;77.11;101517.03;4486301;31;34629;-76
2022/11/13 08:12:44;;;;;;;53.65;31.95;;;;;;;9.63;75.91;101516.72;4493516;31;33801;-75
2022/11/13 08:15:30;;;;;;;46.58;23.87;;;;;;;9.93;74.86;101517.25;4492471;31;33184;-76
2022/11/13 08:18:16;;;;;;;39.95;21.80;;;;;;;9.68;76.36;101519.69;4483831;31;33988;-74
2022/11/13 08:21:03;;;;;;;32.80;19.83;;;;;;;9.92;75.10;101514.53;4483532;31;33720;-76
2022/11/13 08:23:49;;;;;;;34.22;19.08;;;;;;;10.06;74.14;101515.56;4489827;31;33839;-76
2022/11/13 08:26:37;;;;;;;36.58;19.23;;;;;;;10.36;73.36;101510.09;4487613;31;33476;-76
2022/11/13 08:29:23;;;;;;;31.80;19.08;;;;;;;10.20;74.15;101520.97;4489511;31;33668;-77
2022/11/13 08:32:09;;;;;;;32.53;18.67;;;;;;;10.24;74.13;101511.75;4485437;31;34456;-76
2022/11/13 08:34:55;;;;;;;37.33;20.55;;;;;;;9.87;75.75;101527.16;4470467;32;33838;-76
2022/11/13 08:37:41;;;;;;;41.22;21.15;;;;;;;9.33;78.13;101522.13;4485356;31;33281;-77
2022/11/13 08:40:27;;;;;;;41.70;21.17;;;;;;;9.14;80.41;101515.53;4491521;31;34583;-76
2022/11/13 08:43:13;;;;;;;71.82;34.75;;;;;;;9.44;79.34;101511.84;4483965;31;33904;-76
2022/11/13 08:45:59;;;;;;;99.37;52.50;;;;;;;10.30;76.50;101508.72;4485523;31;33548;-76
2022/11/13 08:48:44;;;;;;;35.50;22.52;;;;;;;10.67;74.71;101501.94;4499361;31;33355;-76
2022/11/13 08:51:30;;;;;;;36.85;22.08;;;;;;;10.77;74.21;101499.19;4488554;31;33842;-76
2022/11/13 08:54:16;;;;;;;43.22;21.77;;;;;;;10.71;74.21;101498.75;4476496;31;33861;-77
2022/11/13 08:57:02;;;;;;;31.10;19.05;;;;;;;10.32;76.17;101497.69;4493609;31;33823;-76
2022/11/13 08:59:50;;;;;;;31.05;19.35;;;;;;;10.41;77.07;101502.62;4486616;31;34093;-76
2022/11/13 09:02:36;;;;;;;29.92;19.05;;;;;;;10.60;76.60;101499.69;4483016;31;34817;-77
2022/11/13 09:05:23;;;;;;;32.25;19.08;;;;;;;10.73;75.56;101501.47;4488293;31;33889;-76
2022/11/13 09:08:09;;;;;;;30.23;19.67;;;;;;;10.73;75.86;101510.12;4473411;31;34284;-77
2022/11/13 09:10:55;;;;;;;38.78;20.98;;;;;;;10.85;75.90;101506.62;4491513;31;34038;-77
2022/11/13 09:13:41;;;;;;;33.13;19.83;;;;;;;10.69;77.31;101502.06;4486828;31;33733;-78
2022/11/13 09:16:32;;;;;;;33.00;19.90;;;;;;;10.70;77.55;101502.16;4476735;31;33636;-77
2022/11/13 09:19:18;;;;;;;34.45;21.17;;;;;;;10.91;76.80;101497.56;4482236;31;34142;-76
2022/11/13 09:22:03;;;;;;;31.87;20.83;;;;;;;11.08;76.93;101506.53;4487159;31;33432;-76
2022/11/13 09:24:49;;;;;;;38.35;21.73;;;;;;;11.45;75.66;101508.19;4486220;31;33929;-75
2022/11/13 09:27:35;;;;;;;36.40;21.87;;;;;;;11.05;77.45;101506.34;4479261;31;33977;-76
2022/11/13 09:30:22;;;;;;;34.55;21.62;;;;;;;11.34;76.06;101499.69;4480650;31;33848;-76
2022/11/13 09:33:09;;;;;;;36.03;22.17;;;;;;;11.60;75.62;101501.44;4488605;31;33258;-76
2022/11/13 09:35:54;;;;;;;36.42;20.90;;;;;;;11.61;75.59;101501.56;4475119;31;33800;-78
2022/11/13 09:38:41;;;;;;;35.67;20.88;;;;;;;11.68;75.77;101502.88;4493979;31;34364;-79
2022/11/13 09:41:29;;;;;;;32.75;19.42;;;;;;;12.07;74.75;101497.66;4485931;31;34355;-79
2022/11/13 09:44:19;;;;;;;38.30;22.05;;;;;;;11.77;75.88;101487.03;4487516;31;33537;-77
2022/11/13 09:47:27;;;;;;;40.90;24.25;;;;;;;11.93;75.68;101491.56;4483825;32;33855;-77
2022/11/13 09:50:19;;;;;;;40.47;22.65;;;;;;;11.68;76.45;101483.81;4482066;31;34615;-77
2022/11/13 09:53:05;;;;;;;38.50;22.25;;;;;;;11.86;76.16;101487.66;4494461;31;33698;-77
2022/11/13 09:56:05;;;;;;;38.95;22.08;;;;;;;11.90;76.35;101479.28;4497401;31;33456;-76
2022/11/13 09:59:23;;;;;;;39.10;23.70;;;;;;;12.18;76.07;101476.78;4481826;31;33937;-77
2022/11/13 10:02:20;;;;;;;37.45;22.50;;;;;;;12.15;76.78;101467.91;4473080;31;33855;-77
2022/11/13 10:05:12;;;;;;;43.03;23.67;;;;;;;12.18;76.79;101460.31;4498825;31;34586;-77
2022/11/13 10:08:20;;;;;;;45.03;25.33;;;;;;;12.28;76.96;101457.50;4492531;31;33930;-77
2022/11/13 10:11:27;;;;;;;51.45;28.38;;;;;;;12.64;75.82;101451.97;4486961;31;34704;-77
2022/11/13 10:14:41;;;;;;;47.25;26.77;;;;;;;12.55;76.52;101447.06;4486112;31;34016;-77
2022/11/13 10:17:47;;;;;;;53.55;29.58;;;;;;;12.51;77.49;101435.56;4482220;31;33880;-77
2022/11/13 10:20:47;;;;;;;50.22;27.90;;;;;;;12.58;77.70;101434.28;4490754;31;33082;-77
2022/11/13 10:23:36;;;;;;;53.42;28.40;;;;;;;12.70;77.23;101427.22;4484260;31;33687;-77
2022/11/13 10:26:23;;;;;;;49.70;26.42;;;;;;;12.88;77.12;101426.56;4487789;31;33665;-80
2022/11/13 10:29:16;;;;;;;50.95;28.05;;;;;;;13.26;76.32;101420.19;4493260;31;33634;-78
2022/11/13 10:32:26;;;;;;;48.13;26.23;;;;;;;13.01;76.98;101429.13;4495448;31;33344;-79
2022/11/13 10:35:44;;;;;;;46.28;27.40;;;;;;;13.10;77.54;101432.28;4480078;31;33754;-80
2022/11/13 10:38:41;;;;;;;55.05;29.33;;;;;;;13.51;76.50;101420.88;4489076;31;33886;-79
2022/11/13 10:41:28;;;;;;;52.17;28.17;;;;;;;13.57;76.84;101408.19;4485966;31;33868;-80
2022/11/13 10:44:19;;;;;;;47.47;25.95;;;;;;;13.43;77.52;101400.41;4478692;31;33375;-79
2022/11/13 10:47:16;;;;;;;52.92;27.55;;;;;;;13.46;77.41;101404.09;4488465;31;34717;-78
2022/11/13 10:50:26;;;;;;;44.92;26.40;;;;;;;13.46;77.99;101395.38;4494303;31;33979;-81
2022/11/13 10:53:15;;;;;;;48.95;27.42;;;;;;;13.83;76.78;101390.59;4494140;31;33696;-80
2022/11/13 10:56:11;;;;;;;44.78;25.85;;;;;;;13.84;76.62;101387.16;4490442;31;33237;-77
2022/11/13 10:59:25;;;;;;;50.25;26.95;;;;;;;14.04;75.74;101387.41;4481154;31;34078;-80
2022/11/13 11:02:10;;;;;;;44.88;24.85;;;;;;;14.28;75.62;101386.16;4474862;31;33712;-80
2022/11/13 11:05:02;;;;;;;45.15;24.90;;;;;;;14.47;73.96;101381.97;4488489;31;33868;-80
2022/11/13 11:07:48;;;;;;;43.03;24.10;;;;;;;14.60;74.01;101374.00;4489001;31;33095;-79
2022/11/13 11:10:35;;;;;;;44.28;24.37;;;;;;;14.76;72.67;101362.69;4488863;31;32738;-80
2022/11/13 11:13:22;;;;;;;40.78;24.10;;;;;;;15.13;71.08;101360.28;4497952;31;33996;-79
2022/11/13 11:16:12;;;;;;;39.97;21.90;;;;;;;15.04;70.67;101357.19;4493505;31;33760;-77
2022/11/13 11:19:01;;;;;;;40.60;22.05;;;;;;;15.08;69.99;101351.28;4488590;31;33272;-76
2022/11/13 11:21:50;;;;;;;39.00;22.10;;;;;;;15.36;69.34;101349.22;4488758;31;34086;-76
2022/11/13 11:24:50;;;;;;;39.15;22.85;;;;;;;15.69;68.21;101350.88;4487268;31;33576;-76
2022/11/13 11:27:46;;;;;;;40.35;23.02;;;;;;;15.90;67.26;101344.94;4483659;32;33632;-77
2022/11/13 11:30:39;;;;;;;35.17;21.48;;;;;;;15.96;65.71;101353.06;4482994;31;33326;-75
2022/11/13 11:33:36;;;;;;;40.35;23.35;;;;;;;16.28;65.29;101351.97;4481887;32;33704;-75
2022/11/13 11:36:35;;;;;;;40.70;23.00;;;;;;;16.37;64.69;101345.37;4473462;31;33692;-75
2022/11/13 11:39:38;;;;;;;37.13;21.80;;;;;;;16.21;64.82;101342.03;4476468;31;33281;-75
2022/11/13 11:42:46;;;;;;;38.35;22.37;;;;;;;16.30;64.48;101342.47;4478504;31;33497;-75
2022/11/13 11:45:36;;;;;;;38.45;22.60;;;;;;;16.51;63.64;101339.03;4488911;31;34715;-75
2022/11/13 11:48:25;;;;;;;40.00;22.60;;;;;;;16.52;63.78;101338.22;4478347;31;34626;-75
2022/11/13 11:51:34;;;;;;;33.03;20.42;;;;;;;16.62;62.65;101334.28;4490959;31;34547;-75
2022/11/13 11:54:39;;;;;;;35.03;21.35;;;;;;;16.70;62.45;101323.31;4477278;31;34243;-75
2022/11/13 11:57:46;;;;;;;35.67;21.48;;;;;;;16.52;61.77;101318.19;4489434;31;34563;-75
2022/11/13 12:00:33;;;;;;;34.45;19.27;;;;;;;16.78;61.58;101315.81;4480346;31;34035;-75
2022/11/13 12:03:42;;;;;;;38.55;23.17;;;;;;;16.91;60.67;101306.81;4489941;31;33805;-75
2022/11/13 12:06:37;;;;;;;36.78;22.02;;;;;;;17.03;60.24;101306.44;4478826;31;33085;-75
2022/11/13 12:09:29;;;;;;;36.42;22.52;;;;;;;17.15;59.99;101300.81;4489603;31;33632;-75
2022/11/13 12:12:36;;;;;;;35.80;21.05;;;;;;;17.02;59.95;101296.81;4475548;31;33770;-75
2022/11/13 12:15:36;;;;;;;40.03;22.00;;;;;;;16.96;59.98;101275.59;4477615;31;33758;-75
2022/11/13 12:18:47;;;;;;;32.83;19.87;;;;;;;17.13;59.39;101273.69;4477187;31;33701;-75
2022/11/13 12:22:02;;;;;;;37.03;22.00;;;;;;;16.92;60.96;101282.44;4496917;31;33863;-75
2022/11/13 12:25:08;;;;;;;33.08;19.92;;;;;;;17.07;59.75;101262.16;4483625;31;33583;-75
2022/11/13 12:28:15;;;;;;;63.53;41.88;;;;;;;17.22;58.85;101261.00;4473542;31;33848;-75
2022/11/13 12:31:37;;;;;;;39.80;25.02;;;;;;;16.96;58.75;101258.19;4492034;31;34133;-75
2022/11/13 12:34:28;;;;;;;33.67;21.45;;;;;;;16.86;58.64;101250.75;4478160;31;33660;-75
2022/11/13 12:37:51;;;;;;;35.92;22.25;;;;;;;16.89;58.91;101246.53;4490614;31;33971;-75
2022/11/13 12:41:19;;;;;;;30.80;18.62;;;;;;;16.59;59.80;101240.87;4480196;31;33579;-75
2022/11/13 12:44:26;;;;;;;32.72;17.70;;;;;;;16.71;58.64;101246.63;4487553;31;33246;-75
2022/11/13 12:47:12;;;;;;;27.58;17.17;;;;;;;16.75;58.56;101241.53;4490503;31;34002;-75
2022/11/13 12:50:03;;;;;;;27.80;17.65;;;;;;;16.90;58.05;101230.03;4496548;31;33479;-75
2022/11/13 12:53:05;;;;;;;30.95;16.55;;;;;;;16.67;58.07;101233.37;4492355;31;33628;-75
2022/11/13 12:55:59;;;;;;;32.35;17.37;;;;;;;16.61;58.12;101227.84;4482283;31;161202;-75
2022/11/13 12:58:56;;;;;;;28.45;16.15;;;;;;;16.69;58.04;101222.12;4484520;31;33785;-75